Time;durP1;ratioP1;P1;durP2;ratioP2;P2;SDS_P1;SDS_P2;PMS_P1;PMS_P2;Temp;Humidity;BMP_temperature;BMP_pressure;BME280_temperature;BME280_humidity;BME280_pressure;Samples;Min_cycle;Max_cycle;Signal;HPM_P1;HPM_P2
2022/07/11 00:02:11;;;;;;;24.98;12.18;;;;;;;15.28;89.86;102412.84;6155769;23;20761;-82
2022/07/11 00:04:37;;;;;;;24.38;13.07;;;;;;;15.28;90.09;102412.00;6155730;23;20297;-82
2022/07/11 00:07:03;;;;;;;26.48;14.52;;;;;;;15.29;91.24;102411.09;6155768;23;20009;-80
2022/07/11 00:09:29;;;;;;;26.60;13.88;;;;;;;15.26;91.46;102416.47;6155783;23;20009;-81
2022/07/11 00:11:54;;;;;;;27.02;14.90;;;;;;;15.16;91.72;102401.38;6155369;23;20331;-81
2022/07/11 00:14:21;;;;;;;26.92;14.48;;;;;;;15.26;91.97;102411.28;6155571;23;20001;-82
2022/07/11 00:16:47;;;;;;;21.90;13.30;;;;;;;15.20;91.17;102407.25;6155532;23;20309;-81
2022/07/11 00:19:13;;;;;;;26.70;13.23;;;;;;;15.14;90.94;102404.97;6155726;23;20010;-80
2022/07/11 00:21:38;;;;;;;22.40;12.77;;;;;;;14.97;90.50;102382.53;6155480;23;20043;-82
2022/07/11 00:24:04;;;;;;;20.98;12.65;;;;;;;15.09;90.90;102407.00;6129347;23;20059;-82
2022/07/11 00:26:29;;;;;;;23.40;13.60;;;;;;;14.88;90.78;102383.91;6155056;23;20014;-81
2022/07/11 00:28:55;;;;;;;21.05;13.05;;;;;;;14.91;91.11;102390.69;6155443;23;20013;-82
2022/07/11 00:31:20;;;;;;;24.60;13.55;;;;;;;14.92;90.94;102377.59;6155325;23;20705;-81
2022/07/11 00:33:46;;;;;;;24.17;12.57;;;;;;;15.05;91.21;102392.53;6155205;23;20010;-82
2022/07/11 00:36:11;;;;;;;19.33;11.85;;;;;;;15.04;91.31;102394.25;6155482;23;20010;-79
2022/07/11 00:38:37;;;;;;;21.80;12.75;;;;;;;14.96;91.09;102383.47;6155569;23;20423;-82
2022/07/11 00:41:02;;;;;;;19.77;11.68;;;;;;;14.87;90.75;102369.22;6155435;23;20067;-80
2022/07/11 00:43:36;;;;;;;19.13;10.93;;;;;;;14.89;90.68;102392.53;6155473;23;20128;-74
2022/07/11 00:46:03;;;;;;;19.23;10.98;;;;;;;14.82;91.08;102386.00;6155228;23;20005;-81
2022/07/11 00:48:29;;;;;;;23.50;11.98;;;;;;;14.71;90.93;102385.75;6155509;23;20032;-77
2022/07/11 00:50:55;;;;;;;18.65;11.40;;;;;;;14.71;90.77;102386.59;6155382;23;20001;-73
2022/07/11 00:53:20;;;;;;;18.50;11.55;;;;;;;14.65;91.10;102384.34;6155145;23;20445;-82
2022/07/11 00:55:47;;;;;;;25.00;13.13;;;;;;;14.53;91.87;102367.63;6155411;23;20006;-77
2022/07/11 00:58:13;;;;;;;24.20;13.40;;;;;;;14.55;91.34;102383.16;6155062;23;20088;-79
2022/07/11 01:00:39;;;;;;;19.10;13.13;;;;;;;14.50;91.39;102380.81;6155070;23;20432;-79
2022/07/11 01:03:05;;;;;;;21.20;12.38;;;;;;;14.38;92.13;102371.06;6155337;23;20005;-82
2022/07/11 01:05:30;;;;;;;20.35;12.52;;;;;;;14.36;91.77;102367.72;6155091;23;20008;-80
2022/07/11 01:07:55;;;;;;;19.23;12.15;;;;;;;14.46;91.43;102389.72;6155266;23;20012;-82
2022/07/11 01:10:21;;;;;;;21.35;11.90;;;;;;;14.38;91.55;102378.84;6154936;23;20130;-78
2022/07/11 01:12:46;;;;;;;22.95;12.48;;;;;;;14.37;91.89;102371.16;6154948;23;20021;-76
2022/07/11 01:15:14;;;;;;;20.27;11.95;;;;;;;14.28;91.70;102375.09;6155210;23;20005;-74
2022/07/11 01:17:39;;;;;;;23.63;12.30;;;;;;;14.28;91.83;102365.53;6155381;23;20005;-75
2022/07/11 01:20:05;;;;;;;17.77;12.43;;;;;;;14.37;92.24;102369.38;6155390;23;20468;-74
2022/07/11 01:22:36;;;;;;;25.25;14.68;;;;;;;14.50;93.67;102372.19;6155481;23;20006;-81
2022/07/11 01:25:01;;;;;;;23.90;13.93;;;;;;;14.55;93.32;102373.63;6155189;23;20007;-79
2022/07/11 01:27:28;;;;;;;26.55;15.80;;;;;;;14.69;94.46;102377.22;6155354;23;20427;-74
2022/07/11 01:29:54;;;;;;;26.38;15.38;;;;;;;14.63;94.33;102360.16;6143008;23;20309;-79
2022/07/11 01:32:21;;;;;;;26.10;15.95;;;;;;;14.74;94.21;102368.22;6155495;23;20404;-82
2022/07/11 01:34:46;;;;;;;26.98;15.50;;;;;;;14.86;94.29;102374.50;6156935;23;20013;-82
2022/07/11 01:37:11;;;;;;;31.40;15.93;;;;;;;14.96;94.49;102373.06;6157000;23;20363;-78
2022/07/11 01:39:37;;;;;;;25.17;15.30;;;;;;;14.81;94.56;102342.72;6156957;23;20081;-78
2022/07/11 01:42:02;;;;;;;29.95;16.90;;;;;;;15.07;94.53;102373.28;6156801;23;20029;-82
2022/07/11 01:44:28;;;;;;;29.13;17.88;;;;;;;15.13;94.41;102374.69;6156984;23;20005;-74
2022/07/11 01:46:53;;;;;;;28.55;16.55;;;;;;;15.22;94.22;102376.75;6106483;23;20143;-80
2022/07/11 01:49:18;;;;;;;32.30;16.63;;;;;;;15.28;94.07;102379.00;6156928;23;20056;-82
2022/07/11 01:51:44;;;;;;;27.52;17.02;;;;;;;15.32;93.71;102380.50;6156824;23;20056;-81
2022/07/11 01:54:09;;;;;;;27.45;15.80;;;;;;;15.12;92.99;102341.78;6156693;23;20001;-81
2022/07/11 01:56:35;;;;;;;32.80;16.95;;;;;;;15.32;93.54;102375.28;6156945;23;20044;-74
2022/07/11 01:59:01;;;;;;;26.25;16.40;;;;;;;15.37;94.12;102386.28;6156433;23;20002;-74
2022/07/11 02:01:26;;;;;;;34.42;16.63;;;;;;;15.42;93.74;102386.00;6156776;23;20005;-82
2022/07/11 02:03:52;;;;;;;27.70;16.25;;;;;;;15.44;93.90;102389.38;6156619;23;20006;-82
2022/07/11 02:06:18;;;;;;;27.73;16.50;;;;;;;15.33;94.37;102373.53;6156868;23;20010;-78
2022/07/11 02:08:43;;;;;;;38.22;18.02;;;;;;;15.46;93.60;102392.72;6156571;23;20374;-82
2022/07/11 02:11:08;;;;;;;27.50;16.35;;;;;;;15.47;93.56;102391.78;6156566;23;20009;-82
2022/07/11 02:13:34;;;;;;;30.58;15.85;;;;;;;15.49;93.39;102384.72;6156499;23;20001;-81
2022/07/11 02:15:59;;;;;;;28.40;15.82;;;;;;;15.52;93.63;102388.91;6156642;23;20009;-82
2022/07/11 02:18:24;;;;;;;28.17;16.65;;;;;;;15.47;93.22;102377.00;6156917;23;20009;-82
2022/07/11 02:20:50;;;;;;;32.58;15.82;;;;;;;15.55;92.96;102376.56;6156380;23;20416;-83
2022/07/11 02:23:16;;;;;;;30.33;16.55;;;;;;;15.58;93.11;102378.97;6156739;23;20025;-82
2022/07/11 02:25:42;;;;;;;31.55;16.85;;;;;;;15.49;92.97;102350.88;6156771;23;20012;-83
2022/07/11 02:28:08;;;;;;;30.40;16.25;;;;;;;15.51;93.33;102362.03;6156568;23;20001;-82
2022/07/11 02:30:41;;;;;;;31.30;14.57;;;;;;;15.63;93.19;102378.72;6156676;23;20096;-82
2022/07/11 02:33:07;;;;;;;30.52;14.80;;;;;;;15.66;92.98;102379.41;6130138;23;20010;-82
2022/07/11 02:35:34;;;;;;;30.95;14.40;;;;;;;15.67;92.58;102377.63;6156462;23;20331;-82
2022/07/11 02:38:00;;;;;;;26.92;15.02;;;;;;;15.66;92.40;102376.78;6156635;23;20376;-82
2022/07/11 02:40:26;;;;;;;30.35;12.98;;;;;;;15.72;91.79;102372.97;6156510;23;20005;-83
2022/07/11 02:42:52;;;;;;;28.50;13.40;;;;;;;15.74;92.49;102371.97;6156234;23;20006;-82
2022/07/11 02:45:17;;;;;;;27.65;13.52;;;;;;;15.73;92.47;102372.03;6156297;23;20495;-80
2022/07/11 02:47:43;;;;;;;25.90;12.15;;;;;;;15.73;92.79;102385.06;6153680;23;20020;-82
2022/07/11 02:50:11;;;;;;;29.20;13.75;;;;;;;15.72;92.29;102376.41;6156140;23;20036;-81
2022/07/11 02:52:37;;;;;;;29.40;14.48;;;;;;;15.71;92.33;102373.91;6156466;23;20456;-77
2022/07/11 02:55:03;;;;;;;32.65;14.88;;;;;;;15.69;92.84;102363.56;6156473;23;20001;-82
2022/07/11 02:57:28;;;;;;;25.25;13.75;;;;;;;15.74;92.67;102377.19;6156640;23;20012;-81
2022/07/11 02:59:54;;;;;;;28.80;14.48;;;;;;;15.65;92.36;102362.09;6155799;23;20424;-75
2022/07/11 03:02:19;;;;;;;26.23;13.07;;;;;;;15.76;92.99;102375.31;6156319;23;20009;-81
2022/07/11 03:04:45;;;;;;;30.95;13.88;;;;;;;15.76;92.84;102372.69;6155993;23;20439;-78
2022/07/11 03:07:10;;;;;;;28.17;13.57;;;;;;;15.69;93.22;102357.53;6156047;23;20025;-81
2022/07/11 03:09:36;;;;;;;26.20;14.55;;;;;;;15.70;92.54;102362.66;6156069;23;20033;-82
2022/07/11 03:12:01;;;;;;;25.58;13.82;;;;;;;15.70;92.81;102359.19;6155925;23;20021;-80
2022/07/11 03:14:27;;;;;;;29.92;14.80;;;;;;;15.77;92.42;102376.97;6156229;23;20006;-81
2022/07/11 03:16:52;;;;;;;31.65;14.80;;;;;;;15.78;92.75;102377.81;6156040;23;20515;-82
2022/07/11 03:19:17;;;;;;;25.85;14.43;;;;;;;15.77;92.86;102382.19;6156184;23;20080;-77
2022/07/11 03:21:42;;;;;;;29.63;14.98;;;;;;;15.75;92.89;102378.84;6156226;23;20056;-80
2022/07/11 03:24:08;;;;;;;29.02;15.27;;;;;;;15.76;92.12;102370.09;6156094;23;20077;-82
2022/07/11 03:26:33;;;;;;;30.88;15.63;;;;;;;15.75;92.72;102384.06;6155978;23;20006;-78
2022/07/11 03:28:58;;;;;;;32.78;15.55;;;;;;;15.75;92.42;102380.63;6155931;23;20009;-80
2022/07/11 03:31:24;;;;;;;26.23;13.77;;;;;;;15.78;92.44;102385.63;6155770;23;20422;-80
2022/07/11 03:33:49;;;;;;;31.30;14.40;;;;;;;15.77;92.52;102392.59;6155523;23;20018;-77
2022/07/11 03:36:14;;;;;;;25.77;14.88;;;;;;;15.77;92.80;102387.41;6156009;23;20434;-77
2022/07/11 03:38:40;;;;;;;26.40;14.82;;;;;;;15.77;93.01;102384.78;6156112;23;20037;-74
2022/07/11 03:41:05;;;;;;;26.67;14.77;;;;;;;15.78;92.53;102389.06;6155733;23;20048;-78
2022/07/11 03:43:31;;;;;;;31.25;15.68;;;;;;;15.76;92.49;102383.13;6155741;23;20324;-76
2022/07/11 03:45:56;;;;;;;28.02;14.77;;;;;;;15.67;92.30;102368.03;6155933;23;20056;-79
2022/07/11 03:48:22;;;;;;;28.25;15.90;;;;;;;15.78;92.70;102383.88;6129536;23;20434;-83
2022/07/11 03:50:48;;;;;;;29.08;14.77;;;;;;;15.65;92.46;102359.50;6155645;23;20001;-82
2022/07/11 03:53:13;;;;;;;26.75;14.98;;;;;;;15.83;92.50;102382.72;6155806;23;20010;-81
2022/07/11 03:55:39;;;;;;;24.42;13.98;;;;;;;15.82;92.56;102383.66;6155632;23;20033;-78
2022/07/11 03:58:04;;;;;;;29.17;14.55;;;;;;;15.85;92.38;102386.94;6155595;23;20027;-76
2022/07/11 04:00:30;;;;;;;27.85;13.35;;;;;;;15.87;92.65;102385.06;6155370;23;20056;-75
2022/07/11 04:02:55;;;;;;;28.42;14.90;;;;;;;15.84;92.34;102376.63;6155465;23;20331;-82
2022/07/11 04:05:20;;;;;;;26.40;13.30;;;;;;;15.75;91.88;102365.81;6155401;23;20052;-79
2022/07/11 04:07:46;;;;;;;28.25;13.18;;;;;;;15.91;91.81;102383.13;6155448;23;20073;-83
2022/07/11 04:10:11;;;;;;;25.30;13.40;;;;;;;15.85;92.14;102368.72;6155898;23;20010;-83
2022/07/11 04:12:36;;;;;;;28.67;14.45;;;;;;;15.93;91.96;102373.47;6155731;23;20001;-76
2022/07/11 04:15:02;;;;;;;27.27;13.50;;;;;;;15.96;91.95;102376.72;6155222;23;20048;-78
2022/07/11 04:17:28;;;;;;;25.95;13.68;;;;;;;15.96;91.41;102376.72;6155661;23;20002;-82
2022/07/11 04:19:53;;;;;;;26.20;13.55;;;;;;;15.92;91.75;102369.16;6155332;23;20001;-77
2022/07/11 04:22:19;;;;;;;24.00;12.68;;;;;;;15.96;91.61;102379.31;6155411;23;20009;-81
2022/07/11 04:24:44;;;;;;;26.85;12.93;;;;;;;15.97;91.58;102382.75;6155491;23;20371;-82
2022/07/11 04:27:10;;;;;;;24.73;12.73;;;;;;;15.97;92.02;102380.16;6155524;23;20004;-82
2022/07/11 04:29:35;;;;;;;25.83;12.10;;;;;;;15.89;92.00;102364.97;6155201;23;20009;-83
2022/07/11 04:32:00;;;;;;;26.00;12.82;;;;;;;15.96;91.84;102383.69;6155332;23;20136;-82
2022/07/11 04:34:26;;;;;;;27.35;12.43;;;;;;;15.97;92.14;102380.16;6155492;23;20006;-82
2022/07/11 04:36:51;;;;;;;24.83;13.27;;;;;;;15.97;91.81;102385.34;6155426;23;20017;-82
2022/07/11 04:39:16;;;;;;;22.75;13.00;;;;;;;16.00;92.14;102385.16;6155103;23;20006;-82
2022/07/11 04:41:42;;;;;;;24.27;12.68;;;;;;;16.03;91.82;102383.22;6155471;23;20006;-82
2022/07/11 04:44:07;;;;;;;25.08;13.27;;;;;;;16.01;92.05;102390.28;6155436;23;20012;-82
2022/07/11 04:46:32;;;;;;;23.48;12.18;;;;;;;16.00;91.94;102396.41;6155320;23;20062;-80
2022/07/11 04:48:58;;;;;;;26.15;12.90;;;;;;;16.00;91.98;102393.81;6155388;23;20420;-83
2022/07/11 04:51:24;;;;;;;27.67;12.80;;;;;;;16.05;92.54;102406.56;6155469;23;20005;-81
2022/07/11 04:53:51;;;;;;;27.42;12.65;;;;;;;16.08;92.07;102403.78;6155151;23;20424;-81
2022/07/11 04:56:16;;;;;;;28.40;12.90;;;;;;;16.09;91.83;102400.25;6154909;23;20473;-82
2022/07/11 04:58:42;;;;;;;26.10;13.10;;;;;;;15.99;92.67;102386.94;6155164;23;20001;-82
2022/07/11 05:01:07;;;;;;;27.15;12.10;;;;;;;15.97;92.02;102380.97;6155000;23;20009;-79
2022/07/11 05:03:33;;;;;;;26.90;12.05;;;;;;;16.06;92.29;102398.66;6155406;23;20479;-77
2022/07/11 05:05:58;;;;;;;19.38;11.15;;;;;;;16.10;92.57;102414.09;6155213;23;20416;-83
2022/07/11 05:08:23;;;;;;;20.77;10.98;;;;;;;16.11;92.82;102416.59;6156990;23;20028;-78
2022/07/11 05:10:49;;;;;;;20.42;10.43;;;;;;;16.10;92.11;102412.34;6157267;23;20072;-77
2022/07/11 05:13:14;;;;;;;24.55;10.73;;;;;;;16.11;92.29;102406.19;6157322;23;20005;-80
2022/07/11 05:15:40;;;;;;;18.63;9.55;;;;;;;16.07;92.65;102394.28;6157163;23;20013;-76
2022/07/11 05:18:05;;;;;;;20.85;9.20;;;;;;;16.06;92.32;102387.41;6157094;23;20001;-77
2022/07/11 05:20:31;;;;;;;17.63;8.23;;;;;;;16.29;92.06;102407.66;6157644;23;20024;-77
2022/07/11 05:22:57;;;;;;;14.73;6.97;;;;;;;16.24;90.52;102368.03;6157177;23;20006;-74
2022/07/11 05:25:23;;;;;;;15.30;7.72;;;;;;;16.50;90.24;102397.66;6157010;23;20334;-79
2022/07/11 05:27:48;;;;;;;16.63;7.03;;;;;;;16.65;89.18;102403.69;6157310;23;20012;-79
2022/07/11 05:30:14;;;;;;;12.77;6.50;;;;;;;16.80;88.65;102417.56;6156869;23;20428;-76
2022/07/11 05:32:39;;;;;;;14.85;7.65;;;;;;;16.82;87.79;102407.88;6156892;23;20486;-77
2022/07/11 05:35:05;;;;;;;13.35;5.75;;;;;;;16.93;87.25;102410.63;6156911;23;20402;-76
2022/07/11 05:37:30;;;;;;;11.73;5.03;;;;;;;17.10;86.70;102423.41;6156846;23;20002;-80
2022/07/11 05:39:56;;;;;;;10.45;5.22;;;;;;;17.19;86.32;102416.75;6157171;23;20064;-76
2022/07/11 05:42:21;;;;;;;12.23;6.63;;;;;;;17.15;85.96;102421.34;6156975;23;20010;-79
2022/07/11 05:44:49;;;;;;;12.95;6.30;;;;;;;17.15;85.71;102421.34;6157104;23;20001;-79
2022/07/11 05:47:15;;;;;;;9.77;5.10;;;;;;;17.17;85.81;102421.22;6156662;23;20332;-78
2022/07/11 05:49:40;;;;;;;13.38;5.20;;;;;;;17.25;85.79;102432.03;6156800;23;20001;-79
2022/07/11 05:52:06;;;;;;;15.60;6.00;;;;;;;17.22;86.06;102431.41;6156501;23;20006;-81
2022/07/11 05:54:31;;;;;;;10.27;5.68;;;;;;;17.26;85.38;102425.84;6156880;23;20005;-80
2022/07/11 05:56:56;;;;;;;10.52;5.30;;;;;;;17.27;85.47;102426.69;6154171;23;20044;-81
2022/07/11 05:59:22;;;;;;;12.10;5.57;;;;;;;17.17;85.00;102408.19;6157002;23;20327;-79
2022/07/11 06:01:48;;;;;;;10.40;5.18;;;;;;;17.25;84.85;102418.13;6156489;23;20006;-80
2022/07/11 06:04:13;;;;;;;11.57;5.30;;;;;;;17.06;84.19;102392.41;6156981;23;20301;-79
2022/07/11 06:06:39;;;;;;;10.25;4.90;;;;;;;17.33;84.34;102434.13;6155679;23;20008;-79
2022/07/11 06:09:05;;;;;;;9.20;5.47;;;;;;;17.27;84.06;102445.81;6157359;23;20001;-75
2022/07/11 06:11:31;;;;;;;9.63;5.40;;;;;;;17.05;84.57;102417.66;6156889;23;20006;-79
2022/07/11 06:13:56;;;;;;;8.20;4.70;;;;;;;16.98;84.69;102418.16;6156549;23;20002;-80
2022/07/11 06:16:22;;;;;;;8.27;4.93;;;;;;;17.14;84.67;102444.94;6156300;23;20013;-78
2022/07/11 06:18:47;;;;;;;10.15;4.78;;;;;;;17.11;84.87;102445.16;6156244;23;20328;-78
2022/07/11 06:21:13;;;;;;;8.70;4.65;;;;;;;17.14;84.87;102435.34;6154377;23;20091;-77
2022/07/11 06:23:40;;;;;;;9.23;5.05;;;;;;;17.07;84.11;102415.78;6156820;23;20011;-73
2022/07/11 06:26:05;;;;;;;10.77;4.90;;;;;;;17.28;83.94;102421.38;6156199;23;20002;-78
2022/07/11 06:28:31;;;;;;;9.82;4.90;;;;;;;17.47;83.36;102442.72;6156788;23;20006;-76
2022/07/11 06:30:56;;;;;;;8.27;4.20;;;;;;;17.61;82.89;102440.97;6156117;23;20033;-74
2022/07/11 06:33:22;;;;;;;8.38;4.40;;;;;;;17.76;81.76;102448.63;6129846;23;20524;-77
2022/07/11 06:35:49;;;;;;;10.45;4.80;;;;;;;17.78;80.78;102443.28;6156242;23;20139;-81
2022/07/11 06:38:15;;;;;;;8.35;4.25;;;;;;;17.88;81.19;102448.72;6156494;23;20008;-79
2022/07/11 06:40:42;;;;;;;7.05;3.83;;;;;;;17.98;80.31;102448.00;6156275;23;20054;-77
2022/07/11 06:43:09;;;;;;;7.35;3.72;;;;;;;17.98;80.54;102436.72;6156560;23;20006;-75
2022/07/11 06:45:34;;;;;;;7.72;3.63;;;;;;;18.20;79.66;102428.25;6156270;23;20017;-75
2022/07/11 06:48:00;;;;;;;6.93;3.20;;;;;;;18.50;78.53;102433.09;6156272;23;20005;-74
2022/07/11 06:50:25;;;;;;;6.47;3.17;;;;;;;18.40;77.53;102414.59;6156021;23;20313;-79
2022/07/11 06:52:50;;;;;;;7.18;3.30;;;;;;;18.77;76.70;102435.53;6155984;23;20436;-79
2022/07/11 06:55:16;;;;;;;7.18;3.55;;;;;;;18.84;76.70;102411.41;6155965;23;20009;-75
2022/07/11 06:57:42;;;;;;;7.97;2.80;;;;;;;19.24;74.54;102418.97;6156092;23;20076;-79
2022/07/11 07:00:08;;;;;;;8.60;2.95;;;;;;;19.32;73.01;102427.09;6156023;23;20001;-78
2022/07/11 07:02:34;;;;;;;5.95;2.63;;;;;;;19.54;72.74;102422.84;6156224;23;20009;-79
2022/07/11 07:05:00;;;;;;;4.82;2.70;;;;;;;19.60;72.43;102415.41;6156555;23;20093;-78
2022/07/11 07:07:26;;;;;;;4.95;2.75;;;;;;;19.68;73.00;102435.78;6156250;23;20037;-81
2022/07/11 07:09:53;;;;;;;8.32;3.50;;;;;;;19.55;72.31;102407.00;6156374;23;20010;-80
2022/07/11 07:12:19;;;;;;;7.50;3.15;;;;;;;19.57;71.89;102414.81;6104991;23;20100;-76
2022/07/11 07:14:44;;;;;;;5.88;3.08;;;;;;;19.65;71.93;102431.59;6156317;23;20494;-77
2022/07/11 07:17:10;;;;;;;11.40;3.75;;;;;;;19.51;72.30;102418.69;6155510;23;20005;-77
2022/07/11 07:19:35;;;;;;;7.82;3.00;;;;;;;19.56;72.96;102432.28;6156144;23;20001;-79
2022/07/11 07:22:01;;;;;;;5.55;2.95;;;;;;;19.53;73.81;102422.00;6156450;23;20009;-80
2022/07/11 07:24:26;;;;;;;5.00;2.85;;;;;;;19.40;73.87;102424.72;6156245;23;20001;-76
2022/07/11 07:26:51;;;;;;;6.00;3.22;;;;;;;19.32;73.37;102408.75;6156150;23;20020;-80
2022/07/11 07:29:17;;;;;;;7.07;3.55;;;;;;;19.27;73.28;102417.88;6155670;23;20470;-79
2022/07/11 07:31:42;;;;;;;8.88;3.42;;;;;;;19.28;73.85;102409.09;6155718;23;20013;-81
2022/07/11 07:34:10;;;;;;;6.38;3.30;;;;;;;19.40;73.44;102427.34;6155780;23;20006;-76
2022/07/11 07:36:36;;;;;;;6.95;3.40;;;;;;;19.32;73.50;102421.84;6155522;23;20005;-79
2022/07/11 07:39:03;;;;;;;8.70;3.17;;;;;;;19.42;73.81;102427.22;6156207;23;20323;-75
2022/07/11 07:41:28;;;;;;;8.93;3.97;;;;;;;19.19;73.63;102424.56;6155687;23;20035;-79
2022/07/11 07:43:53;;;;;;;7.47;3.60;;;;;;;19.28;73.41;102428.28;6155522;23;20002;-79
2022/07/11 07:46:19;;;;;;;6.53;3.65;;;;;;;19.29;74.64;102437.81;6156076;23;20012;-79
2022/07/11 07:48:44;;;;;;;9.35;4.07;;;;;;;19.34;73.56;102443.50;6155461;23;20443;-80
2022/07/11 07:51:10;;;;;;;7.65;3.15;;;;;;;19.42;73.49;102435.94;6155763;23;20320;-78
2022/07/11 07:53:36;;;;;;;7.25;3.45;;;;;;;19.29;73.41;102426.50;6154125;23;20002;-79
2022/07/11 07:56:02;;;;;;;7.97;3.75;;;;;;;19.33;73.71;102444.47;6155715;23;20056;-76
2022/07/11 07:58:27;;;;;;;10.45;4.30;;;;;;;19.24;73.81;102442.53;6155235;23;20006;-74
2022/07/11 08:03:37;;;;;;;10.20;4.18;;;;;;;19.25;74.25;102454.69;6155341;23;20078;-74
2022/07/11 08:06:02;;;;;;;8.82;3.75;;;;;;;19.10;74.75;102433.09;6155955;23;20013;-74
2022/07/11 08:08:28;;;;;;;9.98;4.70;;;;;;;19.08;75.09;102447.25;6155557;23;20428;-79
2022/07/11 08:10:53;;;;;;;8.07;4.43;;;;;;;19.29;75.17;102450.91;6155487;23;20111;-73
2022/07/11 08:13:19;;;;;;;9.45;4.47;;;;;;;19.33;74.02;102449.72;6155359;23;20305;-78
2022/07/11 08:15:46;;;;;;;8.68;4.55;;;;;;;19.30;74.10;102434.22;6155673;23;20308;-74
2022/07/11 08:18:11;;;;;;;7.50;4.40;;;;;;;19.39;74.02;102432.72;6155131;23;20005;-74
2022/07/11 08:20:36;;;;;;;7.10;3.78;;;;;;;19.71;73.08;102459.97;6154343;23;20016;-80
2022/07/11 08:23:06;;;;;;;9.80;5.25;;;;;;;19.70;72.99;102458.31;6156611;23;20033;-71
2022/07/11 08:25:31;;;;;;;8.75;5.00;;;;;;;19.75;72.68;102450.91;6155413;23;20043;-79
2022/07/11 08:27:56;;;;;;;9.43;5.55;;;;;;;19.76;71.75;102454.38;6155098;23;20009;-74
2022/07/11 08:30:22;;;;;;;14.10;5.72;;;;;;;19.70;72.32;102447.81;6155268;23;20010;-77
2022/07/11 08:32:47;;;;;;;9.93;5.82;;;;;;;19.57;72.86;102459.34;6155025;23;20013;-79
2022/07/11 08:35:15;;;;;;;10.63;5.97;;;;;;;19.43;73.60;102461.19;6155474;23;20017;-75
2022/07/11 08:37:40;;;;;;;13.05;6.60;;;;;;;19.40;74.27;102457.97;6155437;23;20096;-78
2022/07/11 08:40:06;;;;;;;12.55;6.50;;;;;;;19.35;74.33;102444.34;6155250;23;20029;-77
2022/07/11 08:42:45;;;;;;;12.18;6.75;;;;;;;19.31;74.55;102443.75;6155323;23;20003;-77
2022/07/11 08:45:13;;;;;;;14.38;7.72;;;;;;;19.40;73.86;102465.81;6155693;23;20025;-79
2022/07/11 08:47:41;;;;;;;13.43;6.80;;;;;;;19.45;74.66;102456.66;6154964;23;20033;-81
2022/07/11 08:50:09;;;;;;;14.13;7.70;;;;;;;19.35;74.69;102455.66;6155488;23;20012;-75
2022/07/11 08:52:36;;;;;;;13.52;7.75;;;;;;;19.34;75.84;102448.75;6155402;23;20002;-79
2022/07/11 08:55:06;;;;;;;16.02;8.60;;;;;;;19.18;74.89;102435.97;6155285;23;20374;-77
2022/07/11 08:57:32;;;;;;;16.60;9.32;;;;;;;19.59;74.31;102457.44;6155612;23;20371;-78
2022/07/11 08:59:58;;;;;;;13.15;8.13;;;;;;;19.73;74.47;102434.47;6155367;23;20005;-78
2022/07/11 09:02:24;;;;;;;12.00;6.18;;;;;;;20.14;73.45;102438.31;6155458;23;20088;-79
2022/07/11 09:04:50;;;;;;;16.33;7.32;;;;;;;20.23;73.07;102444.63;6155312;23;20025;-78
2022/07/11 09:07:15;;;;;;;14.50;7.78;;;;;;;19.98;72.01;102432.59;6155540;23;20010;-76
2022/07/11 09:09:41;;;;;;;13.98;6.97;;;;;;;20.13;72.32;102451.53;6155049;23;20033;-80
2022/07/11 09:12:15;;;;;;;11.82;6.80;;;;;;;20.11;72.38;102443.78;6154934;23;20364;-76
2022/07/11 09:14:49;;;;;;;12.73;6.47;;;;;;;20.42;71.96;102452.72;6155426;23;20012;-79
2022/07/11 09:17:15;;;;;;;13.30;7.13;;;;;;;20.76;69.27;102447.44;6155303;23;20009;-80
2022/07/11 09:19:41;;;;;;;12.52;7.03;;;;;;;20.80;68.75;102428.69;6154993;23;20072;-81
2022/07/11 09:27:47;;;;;;;10.95;5.80;;;;;;;21.35;66.96;102408.44;6155172;23;20478;-80
2022/07/11 09:30:16;;;;;;;11.85;7.05;;;;;;;21.58;65.50;102435.41;6154968;23;20005;-80
2022/07/11 09:32:53;;;;;;;12.65;6.95;;;;;;;21.29;66.06;102419.44;6154535;23;20013;-77
2022/07/11 09:35:19;;;;;;;12.23;6.90;;;;;;;21.28;67.12;102427.47;6154762;23;20018;-79
2022/07/11 09:37:44;;;;;;;14.68;7.10;;;;;;;21.43;67.54;102436.69;6154875;23;20028;-80
2022/07/11 09:40:11;;;;;;;12.48;6.80;;;;;;;21.42;66.25;102438.47;6154910;23;20002;-80
2022/07/11 09:42:54;;;;;;;11.60;6.63;;;;;;;21.36;67.10;102446.88;6154837;23;20006;-75
2022/07/11 09:45:21;;;;;;;10.75;6.20;;;;;;;21.11;66.57;102426.19;6155116;23;20013;-80
2022/07/11 09:47:48;;;;;;;9.18;5.78;;;;;;;21.11;67.90;102439.31;6155016;23;20002;-80
2022/07/11 09:50:19;;;;;;;11.32;7.28;;;;;;;20.95;67.43;102441.56;6154626;23;20012;-80
2022/07/11 09:52:59;;;;;;;10.27;6.30;;;;;;;21.09;67.65;102442.06;6155152;23;20353;-79
2022/07/11 09:55:26;;;;;;;10.93;6.93;;;;;;;20.99;67.63;102435.06;6156666;23;20309;-80
2022/07/11 09:57:52;;;;;;;12.02;6.25;;;;;;;21.08;66.87;102444.84;6157127;23;20064;-80
2022/07/11 10:00:17;;;;;;;11.27;5.93;;;;;;;20.92;67.37;102413.72;6156953;23;20009;-79
2022/07/11 10:02:43;;;;;;;9.90;6.10;;;;;;;21.14;67.09;102444.34;6156691;23;20032;-80
2022/07/11 10:05:09;;;;;;;9.10;5.40;;;;;;;21.22;66.98;102446.31;6156638;23;20001;-80
2022/07/11 10:07:35;;;;;;;8.40;5.05;;;;;;;21.12;66.63;102417.34;6156767;23;20327;-81
2022/07/11 10:10:01;;;;;;;10.50;6.50;;;;;;;21.05;65.23;102447.72;6156586;23;20008;-82
2022/07/11 10:12:31;;;;;;;9.07;5.65;;;;;;;20.65;65.61;102390.56;6156603;23;20005;-82
2022/07/11 10:15:00;;;;;;;10.40;5.70;;;;;;;20.99;65.90;102441.16;6156688;23;20028;-81
2022/07/11 10:17:31;;;;;;;9.13;5.35;;;;;;;21.20;66.68;102446.44;6156417;23;20092;-81
2022/07/11 10:20:11;;;;;;;8.88;5.72;;;;;;;21.25;67.06;102454.78;6156498;23;20036;-80
2022/07/11 10:22:36;;;;;;;8.80;5.77;;;;;;;21.13;66.48;102450.53;6156550;23;20459;-81
2022/07/11 10:25:22;;;;;;;9.40;6.10;;;;;;;20.87;67.91;102455.28;6156434;23;20189;-84
2022/07/11 10:28:17;;;;;;;10.27;5.90;;;;;;;20.97;67.79;102460.63;6156708;23;20010;-81
2022/07/11 10:30:46;;;;;;;10.75;5.88;;;;;;;20.79;67.40;102455.06;6145499;23;20080;-80
2022/07/11 10:33:13;;;;;;;9.82;6.10;;;;;;;20.87;68.27;102463.16;6156238;23;20009;-84
2022/07/11 10:35:44;;;;;;;10.13;6.03;;;;;;;21.05;67.72;102466.09;6156254;23;20016;-82
2022/07/11 10:38:10;;;;;;;10.23;7.03;;;;;;;21.08;66.30;102473.72;6156573;23;20374;-82
2022/07/11 10:40:45;;;;;;;11.88;7.32;;;;;;;21.05;66.38;102460.84;6154987;23;20025;-84
2022/07/11 10:43:11;;;;;;;11.50;6.47;;;;;;;21.03;67.18;102460.13;6153942;23;20431;-83
2022/07/11 10:45:57;;;;;;;11.65;6.93;;;;;;;21.07;67.03;102466.81;6156887;23;20016;-83
2022/07/11 10:48:24;;;;;;;11.13;5.80;;;;;;;21.02;66.75;102447.94;6156282;23;20005;-82
2022/07/11 10:51:03;;;;;;;7.97;4.95;;;;;;;21.27;65.79;102468.66;6156097;23;20006;-81
2022/07/11 10:53:33;;;;;;;7.05;4.18;;;;;;;21.30;65.62;102462.31;6156161;23;20386;-78
2022/07/11 10:56:13;;;;;;;7.35;3.97;;;;;;;21.51;65.80;102459.69;6155181;23;20068;-78
2022/07/11 10:58:45;;;;;;;6.30;3.92;;;;;;;21.53;64.95;102442.81;6157157;23;20077;-81
2022/07/11 11:01:15;;;;;;;7.13;3.85;;;;;;;21.85;64.08;102460.34;6155806;23;20006;-83
2022/07/11 11:03:41;;;;;;;8.00;4.32;;;;;;;21.96;64.92;102449.72;6130095;23;20073;-85
2022/07/11 11:06:07;;;;;;;6.68;2.72;;;;;;;22.12;62.63;102451.88;6155603;23;20001;-69
2022/07/11 11:08:35;;;;;;;6.18;3.30;;;;;;;22.38;62.76;102461.00;6156263;23;20009;-72
2022/07/11 11:11:19;;;;;;;10.85;3.58;;;;;;;22.60;60.77;102455.50;6156180;23;20447;-74
2022/07/11 11:13:44;;;;;;;4.82;3.00;;;;;;;22.88;59.72;102456.53;6155696;23;20016;-79
2022/07/11 11:16:22;;;;;;;5.60;3.00;;;;;;;22.95;59.61;102459.47;6155578;23;20006;-72
2022/07/11 11:18:47;;;;;;;4.88;3.10;;;;;;;23.04;59.69;102463.91;6156281;23;20015;-74
2022/07/11 11:21:15;;;;;;;4.95;3.00;;;;;;;22.92;59.55;102440.47;6155784;23;20068;-81
2022/07/11 11:23:43;;;;;;;4.28;2.65;;;;;;;22.97;58.69;102462.78;6155734;23;20080;-82